Time;durP1;ratioP1;P1;durP2;ratioP2;P2;SDS_P1;SDS_P2;PMS_P1;PMS_P2;Temp;Humidity;BMP_temperature;BMP_pressure;BME280_temperature;BME280_humidity;BME280_pressure;Samples;Min_cycle;Max_cycle;Signal;HPM_P1;HPM_P2
2023/04/25 00:02:03;;;;;;;3.75;3.15;;;;;;;9.10;70.87;96033.38;5033478;28;20045;-82
2023/04/25 00:04:33;;;;;;;3.35;3.05;;;;;;;9.16;73.61;96023.03;5034526;28;20061;-82
2023/04/25 00:07:02;;;;;;;5.28;3.55;;;;;;;9.23;73.56;96028.31;5034805;28;20041;-82
2023/04/25 00:09:30;;;;;;;3.55;2.67;;;;;;;9.33;74.72;96022.75;5035306;28;20456;-82
2023/04/25 00:11:58;;;;;;;3.25;2.60;;;;;;;9.37;73.51;96030.00;5034918;28;20069;-82
2023/04/25 00:14:25;;;;;;;2.60;2.30;;;;;;;9.39;72.21;96032.44;5034917;28;20057;-82
2023/04/25 00:16:54;;;;;;;4.53;3.20;;;;;;;9.42;74.46;96040.69;5035530;28;20076;-81
2023/04/25 00:19:21;;;;;;;5.75;2.90;;;;;;;9.50;74.84;96034.50;5034778;28;20501;-80
2023/04/25 00:21:50;;;;;;;3.00;2.70;;;;;;;9.45;72.31;96035.09;5034590;28;20505;-81
2023/04/25 00:24:17;;;;;;;2.55;2.35;;;;;;;9.40;70.40;96039.22;5035311;28;20050;-82
2023/04/25 00:26:45;;;;;;;3.05;2.42;;;;;;;9.37;69.54;96037.81;5028541;28;20050;-82
2023/04/25 00:29:13;;;;;;;3.63;2.40;;;;;;;9.36;70.49;96033.63;5034198;28;20056;-82
2023/04/25 00:31:41;;;;;;;3.58;2.80;;;;;;;9.32;68.94;96031.56;5037197;28;20041;-82
2023/04/25 00:34:09;;;;;;;3.72;2.80;;;;;;;9.38;72.50;96030.81;5035775;28;20045;-82
2023/04/25 00:36:37;;;;;;;4.65;3.50;;;;;;;9.51;74.94;96032.72;5035007;28;20115;-82
2023/04/25 00:39:07;;;;;;;5.15;3.10;;;;;;;9.57;73.65;96034.56;5032022;28;20417;-81
2023/04/25 00:41:35;;;;;;;3.65;3.08;;;;;;;9.53;69.63;96028.13;5033595;28;20045;-82
2023/04/25 00:44:05;;;;;;;3.00;2.78;;;;;;;9.53;72.07;96028.13;5034624;28;20057;-82
2023/04/25 00:46:33;;;;;;;3.72;3.15;;;;;;;9.60;74.45;96023.75;5035199;28;20416;-82
2023/04/25 00:49:00;;;;;;;4.70;3.22;;;;;;;9.65;72.63;96029.22;5035197;28;20045;-81
2023/04/25 00:51:28;;;;;;;3.30;2.75;;;;;;;9.60;69.48;96028.97;5034433;28;20045;-82
2023/04/25 00:53:56;;;;;;;3.65;2.83;;;;;;;9.57;71.06;96024.16;5034060;28;20041;-82
2023/04/25 00:56:26;;;;;;;3.10;2.80;;;;;;;9.61;72.21;96022.78;5025874;28;20060;-82
2023/04/25 00:58:56;;;;;;;3.42;3.13;;;;;;;9.66;73.50;96029.03;5027199;28;20137;-82
2023/04/25 01:01:23;;;;;;;4.57;3.03;;;;;;;9.64;71.00;96025.00;5034683;28;20280;-82
2023/04/25 01:03:53;;;;;;;4.68;2.75;;;;;;;9.64;71.57;96022.38;5034135;28;20050;-82
2023/04/25 01:06:22;;;;;;;2.72;2.47;;;;;;;9.66;71.67;96029.03;5034966;28;20118;-81
2023/04/25 01:08:49;;;;;;;3.17;2.30;;;;;;;9.70;72.25;96022.44;5035976;28;20104;-82
2023/04/25 01:11:18;;;;;;;4.50;2.40;;;;;;;9.72;70.61;96027.47;5035274;28;20049;-83
2023/04/25 01:13:47;;;;;;;2.05;1.88;;;;;;;9.75;70.55;96026.28;5022022;28;20054;-81
2023/04/25 01:16:15;;;;;;;2.33;2.08;;;;;;;9.78;72.13;96025.91;5024282;28;20049;-82
2023/04/25 01:18:44;;;;;;;5.85;2.10;;;;;;;9.79;71.77;96020.50;5035326;28;20057;-83
2023/04/25 01:21:14;;;;;;;2.35;1.90;;;;;;;9.82;72.38;96016.72;5022298;28;20136;-81
2023/04/25 01:23:43;;;;;;;2.88;2.13;;;;;;;9.81;72.12;96008.06;5019229;28;20113;-83
2023/04/25 01:26:12;;;;;;;1.80;1.70;;;;;;;9.79;70.35;96010.06;5017782;28;20057;-82
2023/04/25 01:28:41;;;;;;;2.63;1.85;;;;;;;9.76;69.70;96009.66;5016337;28;20064;-82
2023/04/25 01:31:14;;;;;;;3.17;2.00;;;;;;;9.75;70.96;96008.03;5021166;28;20073;-83
2023/04/25 01:33:43;;;;;;;3.13;1.85;;;;;;;9.69;68.94;95996.59;5036867;28;20045;-82
2023/04/25 01:36:14;;;;;;;2.25;2.05;;;;;;;9.69;71.96;96000.00;5035542;28;20050;-83
2023/04/25 01:39:00;;;;;;;2.95;2.05;;;;;;;9.67;69.84;95995.97;5033339;28;20046;-83
2023/04/25 01:41:41;;;;;;;3.25;1.83;;;;;;;9.66;69.51;96000.41;5043570;28;20460;-83
2023/04/25 01:44:12;;;;;;;2.42;1.83;;;;;;;9.62;68.36;95996.56;5048048;28;20057;-83
2023/04/25 01:46:48;;;;;;;2.27;1.80;;;;;;;9.61;69.56;95999.34;5035665;28;20050;-83
2023/04/25 01:49:20;;;;;;;3.63;1.92;;;;;;;9.59;67.48;95990.91;5027508;28;20054;-83
2023/04/25 01:51:50;;;;;;;2.65;1.60;;;;;;;9.56;67.17;95994.72;5023298;28;20476;-83
2023/04/25 01:54:20;;;;;;;2.08;1.98;;;;;;;9.53;71.21;95995.06;5038395;28;20072;-83
2023/04/25 01:56:58;;;;;;;1.98;1.60;;;;;;;9.51;71.29;95988.44;5050623;28;20080;-83
2023/04/25 01:59:27;;;;;;;3.53;1.70;;;;;;;9.48;70.99;95993.03;5045091;28;20081;-82
2023/04/25 02:01:56;;;;;;;2.28;2.00;;;;;;;9.49;72.93;95988.66;5042617;28;20115;-83
2023/04/25 02:43:22;;;;;;;2.50;2.30;;;;;;;9.64;76.05;95983.31;6005469;22;20278;-80
2023/04/25 02:52:22;;;;;;;2.33;2.13;;;;;;;9.65;72.12;95980.53;5010689;28;20173;-81
2023/04/25 03:20:50;;;;;;;4.80;2.58;;;;;;;9.44;70.35;95967.56;5034582;28;20092;-81
2023/04/25 03:31:26;;;;;;;6.10;2.78;;;;;;;9.51;73.03;95962.41;4881567;29;20046;-81
2023/04/25 03:35:24;;;;;;;3.35;2.70;;;;;;;9.46;71.22;95961.19;4878704;29;20058;-81
2023/04/25 03:38:05;;;;;;;3.47;3.17;;;;;;;9.42;75.02;95959.97;4888740;29;20113;-81
2023/04/25 05:43:26;;;;;;;4.03;3.20;;;;;;;9.67;74.53;95986.38;5057035;22;20630;-81
2023/04/25 05:45:55;;;;;;;7.60;3.40;;;;;;;9.66;71.40;95989.97;5051685;28;20595;-81
2023/04/25 05:48:23;;;;;;;3.38;2.97;;;;;;;9.64;72.73;95986.75;5049529;28;20060;-81
2023/04/25 05:50:52;;;;;;;3.60;3.30;;;;;;;9.68;73.64;95990.56;5047935;28;20049;-81
2023/04/25 05:53:21;;;;;;;3.97;3.40;;;;;;;9.66;70.57;95991.75;5047984;28;20049;-81
2023/04/25 05:55:49;;;;;;;4.97;3.08;;;;;;;9.66;70.06;95992.59;5048028;28;20046;-81
2023/04/25 05:58:18;;;;;;;4.32;3.63;;;;;;;9.66;70.43;95992.59;5047108;28;20083;-81
2023/04/25 06:00:48;;;;;;;3.75;2.83;;;;;;;9.61;69.50;95988.94;5047667;28;20073;-81
2023/04/25 06:03:17;;;;;;;4.03;2.83;;;;;;;9.62;71.31;95995.72;5051394;28;20053;-81
2023/04/25 06:05:49;;;;;;;4.37;3.03;;;;;;;9.59;71.07;95998.72;5056832;28;20037;-82
2023/04/25 06:08:22;;;;;;;11.25;3.17;;;;;;;9.55;70.56;96000.91;5055971;28;20038;-81
2023/04/25 06:10:51;;;;;;;5.03;3.00;;;;;;;9.51;69.27;96001.47;5055968;28;20069;-81
2023/04/25 06:13:21;;;;;;;3.40;3.10;;;;;;;9.48;69.27;95998.25;5049117;28;20072;-82
2023/04/25 06:15:52;;;;;;;4.90;3.42;;;;;;;9.57;71.92;95995.50;5058524;28;20034;-81
2023/04/25 06:18:21;;;;;;;4.50;3.15;;;;;;;9.65;71.96;96008.38;5055121;28;20190;-81
2023/04/25 06:20:50;;;;;;;5.75;3.05;;;;;;;9.68;70.14;96002.78;5058165;28;20049;-81
2023/04/25 06:23:19;;;;;;;5.40;2.70;;;;;;;9.67;70.00;96003.78;5039426;28;20040;-79
2023/04/25 06:25:48;;;;;;;5.43;3.28;;;;;;;9.65;68.83;95998.78;5039988;28;20048;-81
2023/04/25 06:28:17;;;;;;;4.38;3.35;;;;;;;9.67;69.10;96006.41;5037859;28;20037;-82
2023/04/25 06:30:48;;;;;;;3.78;2.70;;;;;;;9.72;70.12;96009.22;5041691;28;20053;-83
2023/04/25 06:33:18;;;;;;;5.75;3.70;;;;;;;9.77;67.49;96003.44;5055806;28;20076;-81
2023/04/25 06:36:01;;;;;;;5.28;3.00;;;;;;;9.87;69.52;96004.72;5042911;28;20114;-81
2023/04/25 06:38:31;;;;;;;4.13;2.88;;;;;;;9.98;69.90;96005.19;5053904;28;20109;-82
2023/04/25 06:41:00;;;;;;;4.07;3.28;;;;;;;10.06;68.46;96002.44;5054620;28;20068;-82
2023/04/25 06:43:32;;;;;;;4.97;3.38;;;;;;;10.08;67.26;95995.22;5051913;28;20072;-81
2023/04/25 06:46:02;;;;;;;4.30;3.47;;;;;;;10.10;68.68;96001.00;5036056;28;20046;-81
2023/04/25 06:48:32;;;;;;;5.95;2.75;;;;;;;10.14;69.22;95997.03;5053767;28;20065;-82
2023/04/25 06:51:01;;;;;;;4.03;3.17;;;;;;;10.14;66.26;96004.84;5033995;28;20066;-81
2023/04/25 06:53:30;;;;;;;3.78;2.67;;;;;;;10.09;66.55;96002.81;5044690;28;20048;-81
2023/04/25 06:56:01;;;;;;;5.95;3.25;;;;;;;10.12;67.81;96004.22;5054058;28;20033;-82
2023/04/25 06:58:31;;;;;;;5.70;3.47;;;;;;;10.16;67.59;96005.47;5054927;28;20053;-81
2023/04/25 07:01:04;;;;;;;3.67;3.28;;;;;;;10.21;68.54;96005.69;5053565;28;20037;-81
2023/04/25 07:03:35;;;;;;;4.65;3.58;;;;;;;10.26;67.91;96002.50;5050774;28;20050;-81
2023/04/25 07:06:04;;;;;;;4.43;3.67;;;;;;;10.24;65.51;96000.09;5052040;28;20513;-81
2023/04/25 07:08:33;;;;;;;5.38;3.72;;;;;;;10.19;64.56;96007.69;5152224;22;20457;-82
2023/04/25 07:11:04;;;;;;;5.25;3.80;;;;;;;10.09;67.15;96005.44;5177399;23;20118;-81
2023/04/25 07:13:32;;;;;;;6.07;3.63;;;;;;;10.11;66.89;96005.25;5007195;28;20078;-81
2023/04/25 07:16:00;;;;;;;4.28;3.88;;;;;;;10.18;66.68;96008.69;5009625;28;20049;-80
2023/04/25 07:18:28;;;;;;;4.05;3.65;;;;;;;10.20;67.56;96006.69;5009521;28;20050;-80
2023/04/25 07:20:57;;;;;;;3.95;3.60;;;;;;;10.24;67.54;96007.91;5016689;28;20046;-80
2023/04/25 07:23:24;;;;;;;3.78;3.38;;;;;;;10.22;67.68;95996.88;5012740;28;20050;-76
2023/04/25 07:25:52;;;;;;;4.18;3.60;;;;;;;10.22;67.06;96004.69;5012795;28;20053;-79
2023/04/25 07:28:20;;;;;;;3.63;3.30;;;;;;;10.19;67.12;96006.88;5007388;28;20081;-81
2023/04/25 07:30:47;;;;;;;4.55;3.85;;;;;;;10.13;65.87;96003.25;4999028;28;20050;-81
2023/04/25 07:33:15;;;;;;;5.72;4.55;;;;;;;10.12;66.62;96004.22;5011050;28;20062;-81
2023/04/25 07:35:43;;;;;;;7.63;4.18;;;;;;;10.11;66.66;96005.25;5000871;28;20053;-78
2023/04/25 07:38:12;;;;;;;7.03;4.65;;;;;;;10.10;67.75;96008.84;5000733;28;20050;-81
2023/04/25 07:40:39;;;;;;;6.50;4.22;;;;;;;10.05;67.10;96008.63;4994507;28;20081;-81
2023/04/25 07:43:07;;;;;;;4.68;3.80;;;;;;;10.05;67.63;96011.22;4993605;28;20378;-81
2023/04/25 07:45:35;;;;;;;6.47;4.15;;;;;;;10.07;67.48;96017.03;4993307;28;20475;-81
2023/04/25 07:48:03;;;;;;;4.10;3.67;;;;;;;10.03;65.23;96013.22;4992863;28;20054;-81
2023/04/25 07:50:31;;;;;;;4.45;4.05;;;;;;;10.00;65.55;96013.63;5011599;28;20050;-81
2023/04/25 07:52:58;;;;;;;4.15;3.72;;;;;;;10.06;68.25;96016.25;5012610;28;20058;-81
2023/04/25 07:55:27;;;;;;;5.07;3.88;;;;;;;10.14;68.14;96017.09;5012141;28;20168;-81
2023/04/25 07:57:55;;;;;;;4.78;4.10;;;;;;;10.18;67.71;96026.13;5013247;28;20056;-81
2023/04/25 08:00:23;;;;;;;3.92;3.58;;;;;;;10.16;66.70;96023.69;5013814;28;20049;-81
2023/04/25 08:02:51;;;;;;;3.67;3.38;;;;;;;10.07;65.24;96025.66;5013990;28;20082;-81
2023/04/25 08:05:19;;;;;;;3.50;3.20;;;;;;;10.05;65.48;96026.84;5013474;28;20058;-81
2023/04/25 08:07:49;;;;;;;8.35;3.30;;;;;;;10.08;66.18;96034.31;5006601;28;20061;-76
2023/04/25 08:10:17;;;;;;;6.70;3.72;;;;;;;10.09;67.30;96036.69;5004976;28;20474;-78
2023/04/25 08:12:46;;;;;;;4.93;3.22;;;;;;;10.14;68.75;96037.94;5004026;28;20136;-76
2023/04/25 08:15:14;;;;;;;4.00;3.50;;;;;;;10.15;66.67;96042.97;5013403;28;20049;-81
2023/04/25 08:17:43;;;;;;;5.75;3.38;;;;;;;10.11;65.39;96045.13;4997479;28;20134;-81
2023/04/25 08:20:12;;;;;;;5.57;3.53;;;;;;;10.07;65.79;96050.94;4997278;28;20046;-80
2023/04/25 08:22:40;;;;;;;4.90;3.80;;;;;;;10.04;67.39;96051.31;5014568;28;20057;-81
2023/04/25 08:25:08;;;;;;;7.63;3.40;;;;;;;10.01;65.53;96054.28;5016204;28;20053;-80
2023/04/25 08:27:36;;;;;;;4.28;3.38;;;;;;;10.02;67.29;96058.53;5016418;28;20140;-81
2023/04/25 08:30:07;;;;;;;3.83;3.38;;;;;;;10.07;67.31;96062.16;5016162;28;20046;-81
2023/04/25 08:32:37;;;;;;;6.43;3.47;;;;;;;10.07;66.78;96072.56;5016246;28;20042;-80
2023/04/25 08:35:06;;;;;;;3.13;2.85;;;;;;;10.03;65.27;96066.13;5016630;28;20053;-81
2023/04/25 08:37:34;;;;;;;2.90;2.70;;;;;;;9.92;64.30;96074.47;5008422;28;20047;-81
2023/04/25 08:40:02;;;;;;;2.88;2.67;;;;;;;9.82;64.44;96072.22;4996823;28;20066;-81
2023/04/25 08:42:32;;;;;;;2.40;2.20;;;;;;;9.78;65.26;96084.00;5006957;28;20077;-80
2023/04/25 08:45:01;;;;;;;2.92;2.50;;;;;;;9.77;64.79;96081.59;5017067;28;20054;-81
2023/04/25 08:47:35;;;;;;;3.13;2.83;;;;;;;9.79;65.48;96082.19;5029992;28;20129;-81
2023/04/25 08:50:05;;;;;;;3.53;2.97;;;;;;;9.77;64.68;96092.81;5032423;28;20042;-81
2023/04/25 08:52:37;;;;;;;3.15;2.50;;;;;;;9.71;64.87;96093.56;5018015;28;20042;-81
2023/04/25 08:55:08;;;;;;;3.15;2.83;;;;;;;9.65;65.24;96095.13;5006764;28;20038;-80
2023/04/25 08:57:36;;;;;;;3.15;2.92;;;;;;;9.69;65.47;96100.78;5016070;28;20054;-81
2023/04/25 09:00:05;;;;;;;2.90;2.70;;;;;;;9.71;64.93;96109.19;5011078;28;20524;-79
2023/04/25 09:02:34;;;;;;;2.70;2.50;;;;;;;9.69;64.96;96111.19;5015568;28;20137;-81
2023/04/25 09:05:04;;;;;;;3.00;2.72;;;;;;;9.67;64.81;96113.97;5014784;28;20085;-79
2023/04/25 09:07:31;;;;;;;3.50;2.72;;;;;;;9.69;64.67;96111.19;5010584;28;20129;-79
2023/04/25 09:10:01;;;;;;;2.40;2.22;;;;;;;9.78;63.93;96117.06;5029286;28;20049;-79
2023/04/25 09:12:30;;;;;;;2.78;2.42;;;;;;;9.87;63.90;96114.13;5035095;28;20091;-79
2023/04/25 09:15:09;;;;;;;2.30;1.80;;;;;;;9.95;64.79;96117.56;5017694;28;20057;-79
2023/04/25 09:17:40;;;;;;;3.40;2.22;;;;;;;10.01;62.91;96124.66;5007279;28;20081;-79
2023/04/25 09:20:09;;;;;;;2.55;2.35;;;;;;;10.03;62.87;96128.66;5014717;28;20049;-79
2023/04/25 09:22:38;;;;;;;2.35;2.15;;;;;;;10.05;62.37;96125.88;5014211;28;20038;-79
2023/04/25 09:25:10;;;;;;;2.97;2.20;;;;;;;10.04;62.29;96134.69;5012463;28;20046;-78
2023/04/25 09:27:50;;;;;;;3.22;2.40;;;;;;;10.03;61.78;96131.28;4996240;28;20105;-79
2023/04/25 09:30:18;;;;;;;2.60;2.40;;;;;;;10.04;61.63;96124.28;4996943;28;20073;-79
2023/04/25 09:32:48;;;;;;;2.90;2.60;;;;;;;10.04;63.15;96129.50;5010520;28;20428;-80
2023/04/25 09:35:25;;;;;;;2.67;2.45;;;;;;;10.08;61.76;96138.53;5013648;28;20046;-79
2023/04/25 09:37:52;;;;;;;4.35;2.97;;;;;;;10.05;61.76;96137.09;5013206;28;20129;-79
2023/04/25 09:40:20;;;;;;;2.67;2.25;;;;;;;10.07;62.94;96142.94;5016478;28;20042;-79
2023/04/25 09:42:47;;;;;;;3.28;2.70;;;;;;;10.11;62.27;96144.16;5010970;28;20052;-79
2023/04/25 09:45:15;;;;;;;3.13;2.70;;;;;;;10.15;62.47;96147.22;5016866;28;20045;-80
2023/04/25 09:47:44;;;;;;;2.97;2.40;;;;;;;10.24;62.38;96147.88;5013961;28;20512;-80
2023/04/25 09:50:17;;;;;;;5.05;2.90;;;;;;;10.28;61.31;96152.50;5004074;28;20047;-79
2023/04/25 09:52:44;;;;;;;2.78;2.55;;;;;;;10.33;61.20;96153.78;5004152;28;20054;-79
2023/04/25 09:55:12;;;;;;;5.35;3.42;;;;;;;10.33;60.95;96148.56;5013828;28;20108;-79
2023/04/25 09:57:41;;;;;;;6.53;3.55;;;;;;;10.38;60.81;96148.78;5013613;28;20046;-79
2023/04/25 10:00:12;;;;;;;3.83;2.70;;;;;;;10.43;60.66;96141.19;5006269;28;20046;-78
2023/04/25 10:02:43;;;;;;;3.90;3.50;;;;;;;10.46;60.10;96146.03;5013623;28;20050;-78
2023/04/25 10:05:11;;;;;;;6.78;2.83;;;;;;;10.57;63.62;96144.69;5013853;28;20084;-79
2023/04/25 10:07:41;;;;;;;5.20;2.90;;;;;;;10.76;64.27;96143.97;5013734;28;20136;-79
2023/04/25 10:10:13;;;;;;;4.03;3.38;;;;;;;10.93;63.56;96141.81;5013213;28;20042;-79
2023/04/25 10:12:43;;;;;;;3.45;3.15;;;;;;;11.06;61.35;96143.69;5013021;28;20082;-79
2023/04/25 10:15:13;;;;;;;3.15;2.90;;;;;;;11.24;60.57;96143.13;5013896;28;20421;-78
2023/04/25 10:17:41;;;;;;;15.02;4.25;;;;;;;11.48;60.71;96142.59;5012539;28;20168;-79
2023/04/25 10:20:10;;;;;;;6.82;3.30;;;;;;;11.72;61.18;96145.66;5013032;28;20125;-79
2023/04/25 10:22:42;;;;;;;5.18;3.42;;;;;;;11.76;57.71;96149.44;5010853;28;20046;-78
2023/04/25 10:25:11;;;;;;;3.60;3.05;;;;;;;11.65;57.99;96153.47;5002322;28;20129;-78
2023/04/25 10:27:40;;;;;;;6.40;2.78;;;;;;;11.55;58.26;96148.63;5000738;28;20046;-80
2023/04/25 10:30:12;;;;;;;7.30;3.40;;;;;;;11.44;58.10;96153.66;5013261;28;20061;-78
2023/04/25 10:32:39;;;;;;;5.25;4.07;;;;;;;11.31;58.02;96150.00;5012478;28;20054;-78
2023/04/25 10:35:15;;;;;;;6.32;3.75;;;;;;;11.19;57.39;96150.75;5012993;28;20048;-79
2023/04/25 10:38:05;;;;;;;4.32;3.88;;;;;;;11.17;57.27;96155.38;5013412;28;20084;-79
2023/04/25 10:40:33;;;;;;;5.55;4.65;;;;;;;11.18;57.72;96152.56;5013565;28;20049;-78
2023/04/25 10:43:34;;;;;;;7.95;4.68;;;;;;;11.19;56.87;96148.94;5012678;28;20073;-78
2023/04/25 10:46:02;;;;;;;5.38;4.25;;;;;;;11.14;57.20;96152.16;4993955;28;20050;-79
2023/04/25 10:48:32;;;;;;;5.22;3.80;;;;;;;11.08;58.19;96147.69;5004774;28;20046;-77
2023/04/25 10:51:09;;;;;;;15.05;4.30;;;;;;;11.07;57.01;96150.53;5014290;28;20061;-78
2023/04/25 10:53:38;;;;;;;6.82;4.32;;;;;;;11.02;56.54;96143.28;5013467;28;20417;-78
2023/04/25 10:56:11;;;;;;;7.18;4.47;;;;;;;10.99;56.24;96154.09;5013006;28;20103;-79
2023/04/25 10:58:44;;;;;;;6.60;4.40;;;;;;;10.93;56.16;96149.66;5015677;28;20461;-78
2023/04/25 11:01:14;;;;;;;7.10;4.60;;;;;;;10.95;60.20;96152.06;5014891;28;20042;-78
2023/04/25 11:03:43;;;;;;;5.65;4.55;;;;;;;10.98;59.01;96157.72;5016242;28;20045;-79
2023/04/25 11:06:21;;;;;;;6.78;4.65;;;;;;;11.08;58.70;96147.69;5013466;28;20058;-77
2023/04/25 11:08:51;;;;;;;5.20;4.47;;;;;;;11.25;60.56;96149.97;5013424;28;20053;-77
2023/04/25 11:11:20;;;;;;;5.25;4.75;;;;;;;11.42;58.00;96151.22;5013417;28;20534;-79
2023/04/25 11:13:50;;;;;;;4.72;4.15;;;;;;;11.54;56.03;96147.03;5014156;28;20045;-79
2023/04/25 11:16:18;;;;;;;4.90;4.43;;;;;;;11.67;59.99;96148.03;5022716;28;20044;-78
2023/04/25 11:19:05;;;;;;;4.00;3.70;;;;;;;11.87;58.98;96151.50;5035529;28;20042;-78
2023/04/25 11:21:33;;;;;;;6.10;3.97;;;;;;;11.98;55.82;96159.75;5035913;28;20058;-79
2023/04/25 11:24:02;;;;;;;7.35;3.83;;;;;;;12.04;56.37;96156.34;5031910;28;20140;-79
2023/04/25 11:26:31;;;;;;;5.10;4.28;;;;;;;12.14;58.86;96160.16;5017280;28;20045;-78
2023/04/25 11:29:00;;;;;;;4.45;3.35;;;;;;;12.24;58.94;96159.72;5015077;28;20058;-78
2023/04/25 11:31:27;;;;;;;5.68;3.67;;;;;;;12.25;55.59;96153.50;5013225;28;20050;-79
2023/04/25 11:33:57;;;;;;;3.78;3.40;;;;;;;12.24;59.67;96156.31;5013794;28;20084;-78
2023/04/25 11:36:26;;;;;;;5.50;3.80;;;;;;;12.30;57.31;96160.75;5012942;28;20050;-78
2023/04/25 11:38:54;;;;;;;4.97;3.63;;;;;;;12.34;56.68;96161.94;5012983;28;20046;-78
2023/04/25 11:41:23;;;;;;;3.83;3.53;;;;;;;12.36;57.17;96163.34;5007622;28;20503;-78
2023/04/25 11:43:54;;;;;;;7.05;4.93;;;;;;;12.37;55.40;96166.75;5007941;28;20052;-78
2023/04/25 11:46:22;;;;;;;6.20;4.10;;;;;;;12.44;55.69;96167.59;5001079;28;20046;-78
2023/04/25 11:48:50;;;;;;;5.13;3.90;;;;;;;12.57;56.53;96167.56;4994620;28;20109;-79
2023/04/25 11:51:18;;;;;;;4.82;3.78;;;;;;;12.58;54.93;96178.81;5009094;28;20528;-79
2023/04/25 11:53:46;;;;;;;5.32;4.82;;;;;;;12.61;56.53;96183.63;5016318;28;20077;-79
2023/04/25 11:56:15;;;;;;;4.20;3.80;;;;;;;12.58;56.30;96192.69;5022960;28;20590;-79
2023/04/25 11:59:00;;;;;;;5.53;3.15;;;;;;;12.50;57.65;96205.19;5026896;28;20073;-79
2023/04/25 12:01:30;;;;;;;3.63;3.28;;;;;;;12.48;58.66;96200.16;5016877;28;20054;-78
2023/04/25 12:04:12;;;;;;;2.65;2.45;;;;;;;12.49;59.12;96200.97;5015523;28;20056;-78
2023/04/25 12:06:40;;;;;;;3.10;2.45;;;;;;;12.55;58.71;96206.19;5008410;28;20052;-79
2023/04/25 12:09:10;;;;;;;2.15;2.00;;;;;;;12.51;58.59;96212.03;5015855;28;20049;-78
2023/04/25 12:11:44;;;;;;;1.90;1.80;;;;;;;12.46;57.46;96210.03;5011696;28;20049;-78
2023/04/25 12:14:21;;;;;;;2.42;2.15;;;;;;;12.40;57.92;96207.41;5011519;28;20042;-79
2023/04/25 12:16:49;;;;;;;3.60;3.05;;;;;;;12.29;56.90;96227.94;5014564;28;20402;-79
2023/04/25 12:19:17;;;;;;;2.70;2.50;;;;;;;12.12;56.89;96227.53;4996643;28;20078;-78
2023/04/25 12:21:45;;;;;;;4.35;2.70;;;;;;;11.95;58.46;96229.72;5013568;28;20046;-79
2023/04/25 12:24:26;;;;;;;3.63;3.05;;;;;;;11.82;59.20;96232.28;5015152;28;20060;-79
2023/04/25 12:27:00;;;;;;;4.70;3.53;;;;;;;11.67;59.49;96235.06;5005168;28;20109;-79
2023/04/25 12:29:31;;;;;;;5.78;4.35;;;;;;;11.42;60.43;96228.78;5015978;28;20433;-79
2023/04/25 12:32:15;;;;;;;3.88;3.58;;;;;;;11.26;62.59;96237.72;5014543;28;20049;-79
2023/04/25 12:34:42;;;;;;;3.95;3.55;;;;;;;11.20;62.80;96235.94;5015952;28;20050;-79
2023/04/25 12:37:11;;;;;;;5.63;3.95;;;;;;;11.17;63.04;96238.91;5015753;28;20049;-79
2023/04/25 12:39:38;;;;;;;6.25;3.97;;;;;;;11.09;63.72;96240.69;5015920;28;20042;-79
2023/04/25 12:42:07;;;;;;;4.97;4.07;;;;;;;11.09;64.43;96243.28;5012455;28;20490;-79
2023/04/25 12:44:37;;;;;;;4.18;3.78;;;;;;;11.13;63.61;96249.75;4996295;28;20498;-79
2023/04/25 12:47:05;;;;;;;3.83;3.53;;;;;;;11.15;64.23;96246.94;5014902;28;20493;-79
2023/04/25 12:49:33;;;;;;;4.07;3.38;;;;;;;11.09;63.59;96264.19;5014445;28;20056;-79
2023/04/25 12:52:01;;;;;;;4.20;3.10;;;;;;;11.05;63.76;96262.94;5007444;28;20073;-79
2023/04/25 12:54:28;;;;;;;3.50;3.03;;;;;;;11.05;64.70;96262.94;5009675;28;20054;-79
2023/04/25 12:56:56;;;;;;;3.47;3.10;;;;;;;11.05;65.18;96257.72;4995945;28;20046;-79
2023/04/25 12:59:23;;;;;;;4.00;2.95;;;;;;;11.06;64.65;96259.34;4999533;28;20054;-79
2023/04/25 13:01:52;;;;;;;3.72;3.13;;;;;;;11.02;61.91;96268.56;5013065;28;20046;-79
2023/04/25 13:04:21;;;;;;;3.38;3.08;;;;;;;11.02;63.71;96263.34;5015507;28;20054;-78
2023/04/25 13:06:49;;;;;;;3.50;3.03;;;;;;;11.10;64.15;96255.34;5014653;28;20046;-78
2023/04/25 13:09:17;;;;;;;2.97;2.72;;;;;;;11.16;64.06;96260.81;5015198;28;20499;-78
2023/04/25 13:11:45;;;;;;;3.50;2.95;;;;;;;11.17;62.66;96275.44;5013495;28;20049;-78
2023/04/25 13:14:13;;;;;;;3.22;2.65;;;;;;;11.14;62.74;96264.41;5002173;28;20047;-78
2023/04/25 13:16:41;;;;;;;3.15;2.80;;;;;;;11.13;62.61;96265.41;5008169;28;20497;-78
2023/04/25 13:19:11;;;;;;;3.20;2.90;;;;;;;11.16;62.80;96279.88;5010082;28;20050;-78
2023/04/25 13:21:39;;;;;;;2.90;2.60;;;;;;;11.18;62.04;96279.69;5014837;28;20057;-78
2023/04/25 13:24:07;;;;;;;2.63;2.42;;;;;;;11.21;61.80;96281.91;5008921;28;20069;-78
2023/04/25 13:26:35;;;;;;;3.20;2.90;;;;;;;11.30;63.22;96280.75;5014281;28;20056;-78
2023/04/25 13:29:03;;;;;;;4.00;3.17;;;;;;;11.39;61.76;96279.59;5021254;28;20053;-78
2023/04/25 13:31:32;;;;;;;3.40;3.10;;;;;;;11.45;61.24;96283.22;5022722;28;20050;-78
2023/04/25 13:33:59;;;;;;;3.60;3.20;;;;;;;11.45;60.60;96284.03;5015964;28;20173;-77
2023/04/25 13:36:28;;;;;;;4.45;3.63;;;;;;;11.43;62.47;96293.84;5022132;28;20098;-79
2023/04/25 13:38:56;;;;;;;4.30;3.38;;;;;;;11.47;60.50;96300.31;5024235;28;20077;-78
2023/04/25 13:41:23;;;;;;;3.97;3.33;;;;;;;11.45;60.81;96297.06;5032066;28;20474;-79
2023/04/25 13:43:51;;;;;;;4.88;3.38;;;;;;;11.42;60.67;96302.69;5030912;28;20045;-77
2023/04/25 13:46:20;;;;;;;3.83;3.05;;;;;;;11.38;62.19;96311.13;5031374;28;20454;-78
2023/04/25 13:49:07;;;;;;;4.35;3.25;;;;;;;11.33;62.06;96311.69;5026664;28;20049;-78
2023/04/25 13:51:42;;;;;;;6.40;4.05;;;;;;;11.20;61.39;96309.03;5021652;28;20120;-78
2023/04/25 13:54:09;;;;;;;4.35;3.88;;;;;;;11.11;63.14;96309.16;5024057;28;20607;-80
2023/04/25 13:56:37;;;;;;;3.90;3.50;;;;;;;11.10;63.22;96312.75;5034258;28;20050;-78
2023/04/25 13:59:05;;;;;;;4.57;4.07;;;;;;;11.10;62.42;96312.75;5016329;28;20046;-78
2023/04/25 14:01:34;;;;;;;4.97;3.55;;;;;;;11.11;63.87;96324.84;4995552;28;20137;-78
2023/04/25 14:04:02;;;;;;;6.85;4.47;;;;;;;11.11;62.81;96317.00;5003802;28;20053;-78
2023/04/25 14:06:32;;;;;;;3.47;3.10;;;;;;;11.18;63.14;96318.84;5010433;28;20038;-78
2023/04/25 14:09:01;;;;;;;4.32;3.35;;;;;;;11.27;63.38;96318.50;5014147;28;20046;-78
2023/04/25 14:11:29;;;;;;;6.10;4.80;;;;;;;11.34;63.09;96318.53;5013228;28;20077;-78
2023/04/25 14:13:56;;;;;;;6.32;4.20;;;;;;;11.41;63.26;96342.06;5006232;28;20056;-78
2023/04/25 14:16:24;;;;;;;2.78;1.70;;;;;;;11.29;60.87;96347.03;5012829;28;20494;-78
2023/04/25 14:18:52;;;;;;;1.92;1.20;;;;;;;11.03;61.16;96342.44;5000581;28;20053;-78
2023/04/25 14:21:20;;;;;;;1.33;1.00;;;;;;;10.69;60.71;96342.22;4994872;28;20054;-78
2023/04/25 14:23:48;;;;;;;1.85;1.13;;;;;;;10.44;63.66;96343.59;5007518;28;20073;-79
2023/04/25 14:26:17;;;;;;;2.10;1.35;;;;;;;10.26;62.06;96351.81;5031137;28;20089;-78
2023/04/25 14:28:45;;;;;;;1.67;1.40;;;;;;;10.07;62.53;96345.41;5029339;28;20050;-78
2023/04/25 14:31:12;;;;;;;1.63;1.42;;;;;;;9.94;62.79;96347.88;5014037;28;20045;-78
2023/04/25 14:33:42;;;;;;;1.73;1.63;;;;;;;9.87;63.61;96353.81;5014275;28;20418;-78
2023/04/25 14:36:10;;;;;;;3.38;1.50;;;;;;;9.83;62.76;96359.56;4996631;28;20058;-78
2023/04/25 14:38:37;;;;;;;2.47;1.52;;;;;;;9.78;63.60;96348.91;5002009;28;20054;-78
2023/04/25 14:41:05;;;;;;;1.40;1.30;;;;;;;9.77;64.00;96350.66;4994637;28;20124;-78
2023/04/25 14:43:34;;;;;;;1.70;1.58;;;;;;;9.77;64.01;96352.47;5013031;28;20049;-78
2023/04/25 14:46:02;;;;;;;1.70;1.60;;;;;;;9.77;64.07;96360.28;5009629;28;20060;-77
2023/04/25 14:48:30;;;;;;;2.20;2.00;;;;;;;9.81;64.47;96359.75;5008996;28;20057;-78
2023/04/25 14:50:58;;;;;;;3.03;1.83;;;;;;;9.90;66.19;96361.28;5004806;28;20054;-78
2023/04/25 14:53:26;;;;;;;2.15;1.92;;;;;;;9.94;64.32;96360.91;5012070;28;20050;-78
2023/04/25 14:55:54;;;;;;;3.10;2.15;;;;;;;9.96;65.32;96366.72;5009002;28;20042;-78
2023/04/25 14:58:22;;;;;;;1.52;1.42;;;;;;;9.89;63.59;96364.06;4994401;28;20082;-78
2023/04/25 15:00:51;;;;;;;1.80;1.50;;;;;;;9.82;63.41;96374.41;5008992;28;20461;-78
2023/04/25 15:03:19;;;;;;;1.70;1.60;;;;;;;9.82;66.54;96379.59;5012600;28;20042;-78
2023/04/25 15:05:47;;;;;;;2.03;1.60;;;;;;;9.81;64.78;96380.59;5027666;28;20586;-78
2023/04/25 15:08:15;;;;;;;3.45;1.90;;;;;;;9.73;67.12;96378.09;5022551;28;20477;-77
2023/04/25 15:10:42;;;;;;;3.53;1.88;;;;;;;9.71;67.87;96390.50;5009294;28;20046;-78
2023/04/25 15:13:10;;;;;;;2.83;2.25;;;;;;;9.72;66.80;96388.69;5010461;28;20049;-78